BEL94L LFLL-EBBR
Flight info
| Callsign | BEL94L |
|---|---|
| Flight time | 1h 14m |
| Altitude | 30000 |
| Route | BUSIL DCT AMORO DCT MOMIL DCT BAGBI DCT SIZZA DCT LAULY DCT BRY DCT CLM DCT KOPOR DCT SOMIL DCT BELDI DCT VEKIN Z173 ARVOL |
| Aircraft | A320/M-SDE3FGHIRWY/LB1 |
Departure
| Time | 2026-05-07 18:18 |
|---|---|
| Airport | Lyon Saint-Exupéry Airport (LFLL) |
Arrival
| Time | 2026-05-07 19:33 |
|---|---|
| Airport | Brussels Airport (EBBR) |
| Time | Latitude | Longitude | Altitude | Speed | Heading |
|---|---|---|---|---|---|
| 2026-05-07 17:47 | 45.72046 | 5.08112 | 797 ft | 0 kts | 343° |
| 2026-05-07 18:08 | 45.72024 | 5.08120 | 797 ft | 4 kts | 341° |
| 2026-05-07 18:09 | 45.72005 | 5.08134 | 797 ft | 4 kts | 317° |
| 2026-05-07 18:09 | 45.71993 | 5.08165 | 796 ft | 4 kts | 281° |
| 2026-05-07 18:09 | 45.71989 | 5.08202 | 796 ft | 4 kts | 265° |
| 2026-05-07 18:09 | 45.71996 | 5.08235 | 796 ft | 4 kts | 223° |
| 2026-05-07 18:10 | 45.72012 | 5.08249 | 797 ft | 0 kts | 195° |
| 2026-05-07 18:13 | 45.72007 | 5.08249 | 797 ft | 1 kts | 180° |
| 2026-05-07 18:13 | 45.71984 | 5.08266 | 798 ft | 6 kts | 146° |
| 2026-05-07 18:13 | 45.71965 | 5.08317 | 799 ft | 6 kts | 109° |
| 2026-05-07 18:14 | 45.71953 | 5.08383 | 800 ft | 7 kts | 104° |
| 2026-05-07 18:14 | 45.71933 | 5.08445 | 801 ft | 7 kts | 134° |
| 2026-05-07 18:14 | 45.71872 | 5.08469 | 802 ft | 10 kts | 172° |
| 2026-05-07 18:14 | 45.71788 | 5.08481 | 802 ft | 14 kts | 175° |
| 2026-05-07 18:15 | 45.71688 | 5.08494 | 802 ft | 15 kts | 175° |
| 2026-05-07 18:15 | 45.71604 | 5.08529 | 803 ft | 7 kts | 137° |
| 2026-05-07 18:15 | 45.71598 | 5.08596 | 805 ft | 8 kts | 88° |
| 2026-05-07 18:15 | 45.71604 | 5.08692 | 807 ft | 10 kts | 84° |
| 2026-05-07 18:16 | 45.71610 | 5.08782 | 811 ft | 6 kts | 84° |
| 2026-05-07 18:16 | 45.71613 | 5.08822 | 813 ft | 4 kts | 85° |
| 2026-05-07 18:16 | 45.71617 | 5.08897 | 813 ft | 9 kts | 85° |
| 2026-05-07 18:16 | 45.71629 | 5.08951 | 810 ft | 6 kts | 49° |
| 2026-05-07 18:17 | 45.71674 | 5.08963 | 813 ft | 6 kts | 352° |
| 2026-05-07 18:17 | 45.71684 | 5.08961 | 815 ft | 0 kts | 352° |
| 2026-05-07 18:17 | 45.71690 | 5.08960 | 815 ft | 6 kts | 352° |
| 2026-05-07 18:18 | 45.71925 | 5.08931 | 811 ft | 78 kts | 355° |
| 2026-05-07 18:18 | 45.72755 | 5.08830 | 793 ft | 157 kts | 355° |
| 2026-05-07 18:18 | 45.73933 | 5.08689 | 1409 ft | 175 kts | 355° |
| 2026-05-07 18:18 | 45.75148 | 5.08539 | 2440 ft | 179 kts | 357° |
| 2026-05-07 18:19 | 45.76459 | 5.08393 | 2852 ft | 200 kts | 357° |
| 2026-05-07 18:19 | 45.77943 | 5.08227 | 3236 ft | 224 kts | 356° |
| 2026-05-07 18:19 | 45.79521 | 5.08035 | 4030 ft | 232 kts | 356° |
| 2026-05-07 18:19 | 45.81156 | 5.07832 | 4891 ft | 239 kts | 355° |
| 2026-05-07 18:20 | 45.82853 | 5.07629 | 5523 ft | 256 kts | 355° |
| 2026-05-07 18:20 | 45.84682 | 5.07397 | 6221 ft | 269 kts | 354° |
| 2026-05-07 18:20 | 45.86575 | 5.07153 | 6823 ft | 277 kts | 353° |
| 2026-05-07 18:20 | 45.88506 | 5.06911 | 7645 ft | 281 kts | 354° |
| 2026-05-07 18:21 | 45.90477 | 5.06666 | 8493 ft | 286 kts | 354° |
| 2026-05-07 18:21 | 45.92478 | 5.06420 | 9320 ft | 292 kts | 354° |
| 2026-05-07 18:21 | 45.94517 | 5.06117 | 10116 ft | 298 kts | 351° |
| 2026-05-07 18:21 | 45.96649 | 5.05714 | 10410 ft | 321 kts | 350° |
| 2026-05-07 18:22 | 45.98936 | 5.05240 | 10708 ft | 341 kts | 350° |
| 2026-05-07 18:22 | 46.00510 | 5.04906 | 11090 ft | 347 kts | 350° |
| 2026-05-07 18:22 | 46.03728 | 5.04228 | 12057 ft | 352 kts | 350° |
| 2026-05-07 18:22 | 46.06170 | 5.03731 | 12815 ft | 356 kts | 351° |
| 2026-05-07 18:23 | 46.08635 | 5.03238 | 13578 ft | 359 kts | 351° |
| 2026-05-07 18:23 | 46.11123 | 5.02742 | 14282 ft | 362 kts | 351° |
| 2026-05-07 18:23 | 46.13628 | 5.02247 | 14940 ft | 365 kts | 351° |
| 2026-05-07 18:23 | 46.16160 | 5.01747 | 15592 ft | 368 kts | 351° |
| 2026-05-07 18:24 | 46.18707 | 5.01244 | 16225 ft | 371 kts | 351° |
| 2026-05-07 18:24 | 46.21271 | 5.00736 | 16866 ft | 374 kts | 350° |
| 2026-05-07 18:24 | 46.23856 | 5.00227 | 17513 ft | 377 kts | 351° |
| 2026-05-07 18:24 | 46.26498 | 5.00285 | 18155 ft | 384 kts | 9° |
| 2026-05-07 18:25 | 46.29027 | 5.01603 | 18748 ft | 391 kts | 28° |
| 2026-05-07 18:25 | 46.31146 | 5.04096 | 19335 ft | 398 kts | 49° |
| 2026-05-07 18:25 | 46.32571 | 5.07469 | 19907 ft | 403 kts | 69° |
| 2026-05-07 18:25 | 46.33182 | 5.11470 | 20496 ft | 406 kts | 85° |
| 2026-05-07 18:26 | 46.33433 | 5.15568 | 21083 ft | 409 kts | 85° |
| 2026-05-07 18:26 | 46.33665 | 5.19690 | 21642 ft | 413 kts | 86° |
| 2026-05-07 18:26 | 46.33887 | 5.23843 | 22183 ft | 416 kts | 86° |
| 2026-05-07 18:26 | 46.34117 | 5.28035 | 22699 ft | 420 kts | 85° |
| 2026-05-07 18:27 | 46.34395 | 5.32195 | 23223 ft | 424 kts | 84° |
| 2026-05-07 18:27 | 46.34724 | 5.36463 | 23719 ft | 427 kts | 83° |
| 2026-05-07 18:27 | 46.35076 | 5.40748 | 24156 ft | 430 kts | 83° |
| 2026-05-07 18:27 | 46.35434 | 5.45066 | 24569 ft | 433 kts | 83° |
| 2026-05-07 18:28 | 46.35779 | 5.49415 | 24982 ft | 437 kts | 84° |
| 2026-05-07 18:28 | 46.36107 | 5.53800 | 25389 ft | 440 kts | 84° |
| 2026-05-07 18:28 | 46.36421 | 5.58220 | 25784 ft | 443 kts | 84° |
| 2026-05-07 18:28 | 46.36727 | 5.62670 | 26171 ft | 446 kts | 85° |
| 2026-05-07 18:29 | 46.37032 | 5.67153 | 26533 ft | 449 kts | 85° |
| 2026-05-07 18:29 | 46.37338 | 5.71656 | 26906 ft | 452 kts | 85° |
| 2026-05-07 18:29 | 46.37647 | 5.76215 | 27271 ft | 456 kts | 85° |
| 2026-05-07 18:29 | 46.37959 | 5.80798 | 27622 ft | 459 kts | 85° |
| 2026-05-07 18:30 | 46.38273 | 5.85407 | 27943 ft | 462 kts | 85° |
| 2026-05-07 18:30 | 46.38798 | 5.89972 | 28016 ft | 457 kts | 71° |
| 2026-05-07 18:30 | 46.40261 | 5.94005 | 28004 ft | 451 kts | 49° |
| 2026-05-07 18:30 | 46.42522 | 5.97103 | 28039 ft | 446 kts | 32° |
| 2026-05-07 18:31 | 46.45066 | 5.99247 | 28023 ft | 441 kts | 20° |
| 2026-05-07 18:31 | 46.47959 | 6.00657 | 28023 ft | 435 kts | 8° |
| 2026-05-07 18:31 | 46.50943 | 6.01138 | 28033 ft | 430 kts | 359° |
| 2026-05-07 18:32 | 46.56923 | 6.01447 | 28030 ft | 430 kts | 358° |
| 2026-05-07 18:32 | 46.62908 | 6.01618 | 28037 ft | 430 kts | 357° |
| 2026-05-07 18:33 | 46.68887 | 6.01799 | 28041 ft | 430 kts | 358° |
| 2026-05-07 18:33 | 46.74874 | 6.02017 | 28037 ft | 430 kts | 358° |
| 2026-05-07 18:34 | 46.80859 | 6.02194 | 28041 ft | 430 kts | 357° |
| 2026-05-07 18:34 | 46.86849 | 6.02343 | 28057 ft | 430 kts | 357° |
| 2026-05-07 18:35 | 46.92819 | 6.02489 | 28069 ft | 429 kts | 357° |
| 2026-05-07 18:35 | 46.98698 | 6.02643 | 28055 ft | 429 kts | 357° |
| 2026-05-07 18:36 | 47.04664 | 6.02765 | 28066 ft | 429 kts | 357° |
| 2026-05-07 18:36 | 47.10625 | 6.02846 | 28061 ft | 428 kts | 357° |
| 2026-05-07 18:37 | 47.16594 | 6.02938 | 28057 ft | 428 kts | 357° |
| 2026-05-07 18:37 | 47.22554 | 6.03049 | 28054 ft | 428 kts | 357° |
| 2026-05-07 18:38 | 47.28509 | 6.03158 | 28072 ft | 428 kts | 357° |
| 2026-05-07 18:38 | 47.34462 | 6.03257 | 28068 ft | 428 kts | 357° |
| 2026-05-07 18:39 | 47.40404 | 6.03371 | 28060 ft | 427 kts | 357° |
| 2026-05-07 18:39 | 47.46329 | 6.03508 | 28070 ft | 427 kts | 358° |
| 2026-05-07 18:40 | 47.52270 | 6.03657 | 28070 ft | 427 kts | 357° |
| 2026-05-07 18:40 | 47.58259 | 6.03787 | 28063 ft | 427 kts | 357° |
| 2026-05-07 18:41 | 47.64198 | 6.03917 | 28057 ft | 427 kts | 357° |
| 2026-05-07 18:41 | 47.70103 | 6.04052 | 28063 ft | 427 kts | 358° |
| 2026-05-07 18:42 | 47.76024 | 6.04883 | 28058 ft | 431 kts | 11° |
| 2026-05-07 18:42 | 47.81846 | 6.07061 | 28074 ft | 432 kts | 11° |
| 2026-05-07 18:43 | 47.87666 | 6.09244 | 28078 ft | 432 kts | 11° |
| 2026-05-07 18:43 | 47.93491 | 6.11437 | 28074 ft | 431 kts | 11° |
| 2026-05-07 18:44 | 47.99311 | 6.13638 | 28080 ft | 431 kts | 11° |
| 2026-05-07 18:44 | 48.05119 | 6.15842 | 28074 ft | 431 kts | 11° |
| 2026-05-07 18:45 | 48.10931 | 6.18043 | 28084 ft | 431 kts | 12° |
| 2026-05-07 18:45 | 48.16744 | 6.20247 | 28076 ft | 430 kts | 12° |
| 2026-05-07 18:46 | 48.22546 | 6.22470 | 28074 ft | 430 kts | 12° |
| 2026-05-07 18:46 | 48.28353 | 6.24693 | 28080 ft | 430 kts | 12° |
| 2026-05-07 18:47 | 48.34145 | 6.26898 | 28077 ft | 430 kts | 12° |
| 2026-05-07 18:47 | 48.39950 | 6.29120 | 28074 ft | 430 kts | 12° |
| 2026-05-07 18:48 | 48.45743 | 6.31348 | 28072 ft | 430 kts | 12° |
| 2026-05-07 18:48 | 48.51534 | 6.33582 | 28080 ft | 430 kts | 12° |
| 2026-05-07 18:49 | 48.57320 | 6.35821 | 28075 ft | 429 kts | 12° |
| 2026-05-07 18:49 | 48.63107 | 6.38072 | 28072 ft | 429 kts | 12° |
| 2026-05-07 18:50 | 48.68972 | 6.39455 | 28070 ft | 426 kts | 1° |
| 2026-05-07 18:50 | 48.74886 | 6.40039 | 28070 ft | 426 kts | 1° |
| 2026-05-07 18:51 | 48.80768 | 6.40635 | 28071 ft | 426 kts | 1° |
| 2026-05-07 18:51 | 48.86686 | 6.41240 | 28071 ft | 426 kts | 1° |
| 2026-05-07 18:52 | 48.92602 | 6.41840 | 28079 ft | 426 kts | 1° |
| 2026-05-07 18:52 | 48.98523 | 6.42441 | 28075 ft | 426 kts | 1° |
| 2026-05-07 18:53 | 49.04443 | 6.43050 | 28074 ft | 426 kts | 1° |
| 2026-05-07 18:53 | 49.10360 | 6.43494 | 28073 ft | 424 kts | 355° |
| 2026-05-07 18:53 | 49.13256 | 6.42900 | 28080 ft | 421 kts | 343° |
| 2026-05-07 18:54 | 49.16085 | 6.41750 | 28078 ft | 420 kts | 343° |
| 2026-05-07 18:54 | 49.21749 | 6.39487 | 28076 ft | 421 kts | 343° |
| 2026-05-07 18:55 | 49.27406 | 6.37221 | 28078 ft | 421 kts | 343° |
| 2026-05-07 18:55 | 49.33067 | 6.34916 | 28076 ft | 421 kts | 343° |
| 2026-05-07 18:56 | 49.38724 | 6.32605 | 28082 ft | 421 kts | 343° |
| 2026-05-07 18:56 | 49.44384 | 6.30282 | 28077 ft | 421 kts | 343° |
| 2026-05-07 18:57 | 49.50033 | 6.27955 | 28074 ft | 421 kts | 343° |
| 2026-05-07 18:57 | 49.54732 | 6.26016 | 28076 ft | 420 kts | 342° |
| 2026-05-07 18:58 | 49.60388 | 6.23680 | 28082 ft | 420 kts | 343° |
| 2026-05-07 18:58 | 49.66026 | 6.21350 | 28080 ft | 420 kts | 342° |
| 2026-05-07 18:59 | 49.71667 | 6.19009 | 28076 ft | 420 kts | 342° |
| 2026-05-07 18:59 | 49.77315 | 6.16665 | 28077 ft | 420 kts | 342° |
| 2026-05-07 19:00 | 49.82961 | 6.14310 | 28085 ft | 420 kts | 342° |
| 2026-05-07 19:00 | 49.88615 | 6.11994 | 28083 ft | 421 kts | 344° |
| 2026-05-07 19:01 | 49.94331 | 6.09976 | 28091 ft | 421 kts | 346° |
| 2026-05-07 19:01 | 50.00041 | 6.08063 | 27739 ft | 414 kts | 345° |
| 2026-05-07 19:01 | 50.02836 | 6.07106 | 27209 ft | 410 kts | 345° |
| 2026-05-07 19:02 | 50.05613 | 6.06136 | 26677 ft | 406 kts | 345° |
| 2026-05-07 19:02 | 50.08355 | 6.05167 | 26151 ft | 404 kts | 345° |
| 2026-05-07 19:02 | 50.11088 | 6.04195 | 25657 ft | 401 kts | 345° |
| 2026-05-07 19:02 | 50.13800 | 6.03230 | 25211 ft | 398 kts | 345° |
| 2026-05-07 19:03 | 50.16490 | 6.02275 | 25046 ft | 397 kts | 345° |
| 2026-05-07 19:03 | 50.19189 | 6.01315 | 25070 ft | 399 kts | 345° |
| 2026-05-07 19:03 | 50.21908 | 6.00343 | 25080 ft | 399 kts | 345° |
| 2026-05-07 19:03 | 50.24610 | 5.99375 | 25084 ft | 399 kts | 345° |
| 2026-05-07 19:04 | 50.27316 | 5.98408 | 25075 ft | 399 kts | 345° |
| 2026-05-07 19:04 | 50.30023 | 5.97439 | 25030 ft | 399 kts | 345° |
| 2026-05-07 19:04 | 50.32684 | 5.96298 | 24592 ft | 393 kts | 335° |
| 2026-05-07 19:04 | 50.35019 | 5.94192 | 24160 ft | 386 kts | 319° |
| 2026-05-07 19:05 | 50.36980 | 5.91353 | 23730 ft | 383 kts | 314° |
| 2026-05-07 19:05 | 50.38898 | 5.88463 | 23238 ft | 381 kts | 314° |
| 2026-05-07 19:05 | 50.40801 | 5.85583 | 22753 ft | 379 kts | 314° |
| 2026-05-07 19:05 | 50.42687 | 5.82720 | 22271 ft | 376 kts | 314° |
| 2026-05-07 19:06 | 50.44557 | 5.79877 | 21797 ft | 373 kts | 314° |
| 2026-05-07 19:06 | 50.48259 | 5.74235 | 20853 ft | 368 kts | 314° |
| 2026-05-07 19:06 | 50.50094 | 5.71435 | 20228 ft | 370 kts | 314° |
| 2026-05-07 19:07 | 50.51951 | 5.68605 | 19538 ft | 373 kts | 314° |
| 2026-05-07 19:07 | 50.53824 | 5.65749 | 18859 ft | 376 kts | 314° |
| 2026-05-07 19:07 | 50.55707 | 5.62867 | 18166 ft | 379 kts | 314° |
| 2026-05-07 19:07 | 50.57597 | 5.59967 | 17405 ft | 381 kts | 314° |
| 2026-05-07 19:08 | 50.59493 | 5.57062 | 16662 ft | 376 kts | 314° |
| 2026-05-07 19:08 | 50.61329 | 5.54249 | 15940 ft | 362 kts | 314° |
| 2026-05-07 19:08 | 50.63097 | 5.51536 | 15232 ft | 349 kts | 314° |
| 2026-05-07 19:08 | 50.64816 | 5.48892 | 14542 ft | 341 kts | 314° |
| 2026-05-07 19:09 | 50.66502 | 5.46295 | 13870 ft | 338 kts | 314° |
| 2026-05-07 19:09 | 50.68154 | 5.43747 | 13125 ft | 334 kts | 314° |
| 2026-05-07 19:09 | 50.69807 | 5.41195 | 12390 ft | 331 kts | 314° |
| 2026-05-07 19:09 | 50.71463 | 5.38635 | 11661 ft | 327 kts | 314° |
| 2026-05-07 19:10 | 50.73060 | 5.36164 | 10967 ft | 324 kts | 314° |
| 2026-05-07 19:10 | 50.74659 | 5.33690 | 10281 ft | 321 kts | 315° |
| 2026-05-07 19:10 | 50.76241 | 5.31240 | 9564 ft | 315 kts | 315° |
| 2026-05-07 19:10 | 50.77810 | 5.28805 | 8808 ft | 309 kts | 315° |
| 2026-05-07 19:11 | 50.79300 | 5.26492 | 8290 ft | 297 kts | 315° |
| 2026-05-07 19:11 | 50.80742 | 5.24257 | 7882 ft | 284 kts | 315° |
| 2026-05-07 19:11 | 50.82153 | 5.22064 | 7472 ft | 277 kts | 315° |
| 2026-05-07 19:11 | 50.83503 | 5.19960 | 7076 ft | 275 kts | 315° |
| 2026-05-07 19:12 | 50.84859 | 5.17841 | 6679 ft | 273 kts | 315° |
| 2026-05-07 19:12 | 50.86215 | 5.15717 | 6307 ft | 275 kts | 315° |
| 2026-05-07 19:12 | 50.87540 | 5.13566 | 6112 ft | 272 kts | 309° |
| 2026-05-07 19:12 | 50.88613 | 5.11110 | 6088 ft | 272 kts | 303° |
| 2026-05-07 19:13 | 50.89877 | 5.08938 | 6087 ft | 264 kts | 320° |
| 2026-05-07 19:13 | 50.91269 | 5.07202 | 5999 ft | 246 kts | 322° |
| 2026-05-07 19:13 | 50.92608 | 5.05582 | 5603 ft | 239 kts | 323° |
| 2026-05-07 19:13 | 50.93917 | 5.03990 | 5116 ft | 237 kts | 323° |
| 2026-05-07 19:14 | 50.95217 | 5.02396 | 4606 ft | 235 kts | 323° |
| 2026-05-07 19:14 | 50.96501 | 5.00811 | 4108 ft | 232 kts | 323° |
| 2026-05-07 19:14 | 50.97623 | 4.99030 | 4007 ft | 226 kts | 299° |
| 2026-05-07 19:14 | 50.98138 | 4.96830 | 4012 ft | 202 kts | 285° |
| 2026-05-07 19:15 | 50.98467 | 4.94708 | 4011 ft | 196 kts | 283° |
| 2026-05-07 19:15 | 50.98753 | 4.92596 | 4015 ft | 195 kts | 275° |
| 2026-05-07 19:15 | 50.98606 | 4.90478 | 4022 ft | 195 kts | 250° |
| 2026-05-07 19:15 | 50.98144 | 4.88450 | 4019 ft | 195 kts | 249° |
| 2026-05-07 19:16 | 50.97684 | 4.86428 | 4018 ft | 195 kts | 250° |
| 2026-05-07 19:16 | 50.97225 | 4.84406 | 4016 ft | 195 kts | 250° |
| 2026-05-07 19:16 | 50.96766 | 4.82383 | 4013 ft | 195 kts | 250° |
| 2026-05-07 19:16 | 50.96307 | 4.80362 | 3871 ft | 194 kts | 250° |
| 2026-05-07 19:17 | 50.95849 | 4.78349 | 3633 ft | 193 kts | 250° |
| 2026-05-07 19:17 | 50.95394 | 4.76352 | 3383 ft | 193 kts | 250° |
| 2026-05-07 19:17 | 50.94939 | 4.74355 | 3121 ft | 192 kts | 250° |
| 2026-05-07 19:17 | 50.94486 | 4.72367 | 2862 ft | 192 kts | 250° |
| 2026-05-07 19:18 | 50.94032 | 4.70379 | 2593 ft | 191 kts | 250° |
| 2026-05-07 19:18 | 50.93579 | 4.68398 | 2334 ft | 191 kts | 250° |
| 2026-05-07 19:18 | 50.93126 | 4.66416 | 2083 ft | 191 kts | 249° |
| 2026-05-07 19:18 | 50.92420 | 4.64687 | 1958 ft | 189 kts | 213° |
| 2026-05-07 19:19 | 50.91217 | 4.63804 | 2588 ft | 192 kts | 194° |
| 2026-05-07 19:19 | 50.89842 | 4.63437 | 3179 ft | 206 kts | 184° |
| 2026-05-07 19:19 | 50.88395 | 4.63246 | 3854 ft | 213 kts | 182° |
| 2026-05-07 19:19 | 50.86949 | 4.63575 | 3988 ft | 210 kts | 152° |
| 2026-05-07 19:20 | 50.85901 | 4.65112 | 4011 ft | 207 kts | 118° |
| 2026-05-07 19:20 | 50.85330 | 4.67197 | 4012 ft | 207 kts | 109° |
| 2026-05-07 19:20 | 50.84860 | 4.69348 | 4018 ft | 207 kts | 108° |
| 2026-05-07 19:20 | 50.84404 | 4.71513 | 4014 ft | 208 kts | 108° |
| 2026-05-07 19:21 | 50.84018 | 4.73708 | 4010 ft | 207 kts | 92° |
| 2026-05-07 19:21 | 50.84209 | 4.75970 | 4021 ft | 216 kts | 75° |
| 2026-05-07 19:21 | 50.84637 | 4.78327 | 4016 ft | 226 kts | 73° |
| 2026-05-07 19:21 | 50.85106 | 4.80725 | 4015 ft | 228 kts | 73° |
| 2026-05-07 19:22 | 50.85578 | 4.83115 | 4018 ft | 228 kts | 73° |
| 2026-05-07 19:22 | 50.86053 | 4.85516 | 4018 ft | 228 kts | 73° |
| 2026-05-07 19:22 | 50.86527 | 4.87909 | 4018 ft | 228 kts | 73° |
| 2026-05-07 19:22 | 50.87003 | 4.90308 | 4018 ft | 228 kts | 73° |
| 2026-05-07 19:23 | 50.87477 | 4.92698 | 4015 ft | 228 kts | 73° |
| 2026-05-07 19:23 | 50.87953 | 4.95099 | 4015 ft | 228 kts | 73° |
| 2026-05-07 19:23 | 50.88428 | 4.97498 | 4015 ft | 228 kts | 73° |
| 2026-05-07 19:23 | 50.88902 | 4.99887 | 4015 ft | 228 kts | 73° |
| 2026-05-07 19:24 | 50.89465 | 5.02232 | 4007 ft | 228 kts | 57° |
| 2026-05-07 19:24 | 50.90616 | 5.03871 | 4015 ft | 229 kts | 25° |
| 2026-05-07 19:24 | 50.92177 | 5.04267 | 4016 ft | 231 kts | 353° |
| 2026-05-07 19:24 | 50.93747 | 5.03677 | 4016 ft | 233 kts | 344° |
| 2026-05-07 19:25 | 50.95252 | 5.02934 | 4013 ft | 219 kts | 343° |
| 2026-05-07 19:25 | 50.96634 | 5.02163 | 4008 ft | 203 kts | 332° |
| 2026-05-07 19:25 | 50.97576 | 5.00624 | 4049 ft | 195 kts | 295° |
| 2026-05-07 19:25 | 50.98012 | 4.98595 | 4027 ft | 195 kts | 285° |
| 2026-05-07 19:26 | 50.98331 | 4.96499 | 3961 ft | 193 kts | 283° |
| 2026-05-07 19:26 | 50.98628 | 4.94420 | 3672 ft | 193 kts | 283° |
| 2026-05-07 19:26 | 50.98847 | 4.92325 | 3438 ft | 192 kts | 268° |
| 2026-05-07 19:26 | 50.98560 | 4.90285 | 3163 ft | 191 kts | 249° |
| 2026-05-07 19:27 | 50.98110 | 4.88306 | 3017 ft | 191 kts | 250° |
| 2026-05-07 19:27 | 50.97659 | 4.86318 | 3013 ft | 192 kts | 250° |
| 2026-05-07 19:27 | 50.97218 | 4.84374 | 3006 ft | 180 kts | 250° |
| 2026-05-07 19:27 | 50.96802 | 4.82542 | 3050 ft | 175 kts | 250° |
| 2026-05-07 19:28 | 50.96394 | 4.80746 | 3015 ft | 172 kts | 250° |
| 2026-05-07 19:28 | 50.95989 | 4.78962 | 3007 ft | 171 kts | 250° |
| 2026-05-07 19:28 | 50.95585 | 4.77190 | 3010 ft | 171 kts | 250° |
| 2026-05-07 19:28 | 50.95180 | 4.75411 | 3009 ft | 171 kts | 250° |
| 2026-05-07 19:29 | 50.94776 | 4.73638 | 2943 ft | 171 kts | 250° |
| 2026-05-07 19:29 | 50.94370 | 4.71859 | 2763 ft | 170 kts | 250° |
| 2026-05-07 19:29 | 50.93969 | 4.70101 | 2556 ft | 170 kts | 250° |
| 2026-05-07 19:29 | 50.93568 | 4.68349 | 2324 ft | 169 kts | 250° |
| 2026-05-07 19:30 | 50.93169 | 4.66601 | 2097 ft | 168 kts | 249° |
| 2026-05-07 19:30 | 50.92781 | 4.64907 | 1860 ft | 158 kts | 250° |
| 2026-05-07 19:30 | 50.92418 | 4.63322 | 1655 ft | 149 kts | 250° |
| 2026-05-07 19:30 | 50.92067 | 4.61792 | 1455 ft | 146 kts | 250° |
| 2026-05-07 19:31 | 50.91722 | 4.60288 | 1269 ft | 145 kts | 250° |
| 2026-05-07 19:31 | 50.91380 | 4.58791 | 1069 ft | 144 kts | 251° |
| 2026-05-07 19:31 | 50.91038 | 4.57298 | 862 ft | 144 kts | 250° |
| 2026-05-07 19:31 | 50.90697 | 4.55819 | 678 ft | 143 kts | 250° |
| 2026-05-07 19:32 | 50.90357 | 4.54342 | 481 ft | 142 kts | 250° |
| 2026-05-07 19:32 | 50.90022 | 4.52881 | 288 ft | 141 kts | 250° |
| 2026-05-07 19:32 | 50.89697 | 4.51452 | 174 ft | 127 kts | 249° |
| 2026-05-07 19:32 | 50.89449 | 4.50397 | 176 ft | 79 kts | 250° |
| 2026-05-07 19:33 | 50.89333 | 4.49873 | 177 ft | 19 kts | 261° |
| 2026-05-07 19:33 | 50.89363 | 4.49684 | 174 ft | 17 kts | 305° |
| 2026-05-07 19:33 | 50.89419 | 4.49570 | 168 ft | 13 kts | 308° |
| 2026-05-07 19:33 | 50.89472 | 4.49460 | 165 ft | 13 kts | 306° |
| 2026-05-07 19:34 | 50.89530 | 4.49333 | 162 ft | 11 kts | 306° |
| 2026-05-07 19:34 | 50.89590 | 4.49246 | 156 ft | 10 kts | 349° |
| 2026-05-07 19:34 | 50.89673 | 4.49273 | 151 ft | 11 kts | 15° |
| 2026-05-07 19:34 | 50.89761 | 4.49310 | 146 ft | 10 kts | 14° |
| 2026-05-07 19:35 | 50.89820 | 4.49334 | 142 ft | 7 kts | 14° |
| 2026-05-07 19:35 | 50.89877 | 4.49347 | 138 ft | 12 kts | 352° |
| 2026-05-07 19:35 | 50.89924 | 4.49307 | 136 ft | 5 kts | 326° |
| 2026-05-07 19:35 | 50.89988 | 4.49290 | 133 ft | 14 kts | 8° |
| 2026-05-07 19:36 | 50.90071 | 4.49321 | 131 ft | 11 kts | 14° |
| 2026-05-07 19:36 | 50.90155 | 4.49352 | 127 ft | 15 kts | 13° |
| 2026-05-07 19:36 | 50.90257 | 4.49392 | 125 ft | 11 kts | 15° |
| 2026-05-07 19:36 | 50.90321 | 4.49406 | 123 ft | 6 kts | 331° |
| 2026-05-07 19:37 | 50.90360 | 4.49344 | 125 ft | 8 kts | 324° |
| 2026-05-07 19:37 | 50.90390 | 4.49275 | 122 ft | 8 kts | 261° |
| 2026-05-07 19:37 | 50.90362 | 4.49179 | 123 ft | 11 kts | 245° |
| 2026-05-07 19:37 | 50.90328 | 4.49063 | 120 ft | 12 kts | 245° |
| 2026-05-07 19:38 | 50.90323 | 4.48982 | 120 ft | 7 kts | 308° |
| 2026-05-07 19:38 | 50.90351 | 4.48957 | 120 ft | 5 kts | 333° |
| 2026-05-07 19:38 | 50.90371 | 4.48942 | 121 ft | 2 kts | 335° |
| 2026-05-07 19:38 | 50.90381 | 4.48934 | 117 ft | 2 kts | 335° |
| 2026-05-07 19:39 | 50.90382 | 4.48934 | 121 ft | 0 kts | 335° |